Ogden, UT

11:34 AM MST on February 06, 2016 (GMT -0700)
Ogden-Hinckley | | Change Station
CLOSE
Current Station
Airport
Location: Ogden,
Elevation: 4469 ft
Nearby Weather Stations

Elev 4469 ft 41.20 °N, 112.01 °W | Updated 41 minutes ago

Clear
Clear
29 °F
Feels Like 21 °F
N
8
Wind Variable Wind from South

Today
High -- | Low -- °F
--% Chance of Precip.
Yesterday
High -- | Low -- °F
Precip. -- in
Pressure 30.58 in
Visibility 10.0 miles
Clouds Clear
Windchill 21 °F
Dew Point 20 °F
Humidity 69%
Rainfall 0.00 in
Snow Depth Not available.
7:34 AM 5:50 PM
Waning Crescent, 4% visible
METAR KOGD 061753Z 18007KT 10SM CLR M02/M07 A3053 RMK AO2 SLP354 T10171067 11017 21067 53002
Pressure 30.58 in
Visibility 10.0 miles
Clouds Clear
Windchill 21 °F
Dew Point 20 °F
Humidity 69%
Rainfall 0.00 in
Snow Depth Not available.
7:34 AM 5:50 PM
Waning Crescent, 4% visible
METAR KOGD 061753Z 18007KT 10SM CLR M02/M07 A3053 RMK AO2 SLP354 T10171067 11017 21067 53002

10-Day Weather Forecast

Almanac

Astronomy

Feb. 06, 2016 Rise Set
Actual Time
Civil Twilight
Nautical Twilight
Astronomical Twilight
Moon
Length of Visible Light
Length of Day
Tomorrow will be .
, % of the Moon is Illuminated

Today's Extremes

State Highs State Lows

Community

WunderPhotos

Upload Photos

1,891,032 photos uploaded!

WunderBlog® & News

Nearby

Air Quality

  Air Quality AQ Index Pollutant
Not available.

Snow Depth

Station Depth Elevation

Earthquake Activity

City Distance Mag. Time & Date
Minimum magnitude displayed is 2.5.

Coastal Water Temperatures

Place Temperature

Stations

Nearby Weather Stations

Station Location Temp. Windchill Dew Point Humidity Wind Precip. Elev Updated Type
                   

Watches & Warnings

There are currently no watches in effect.